createdAt,value
2023-02-04T00:02:29.827Z,-10954.34
2023-02-04T00:05:36.270Z,-10955.63
2023-02-04T00:08:42.548Z,-10956.03
2023-02-04T00:11:48.790Z,-10959.25
2023-02-04T00:14:54.783Z,-10949.72
2023-02-04T00:18:02.297Z,-10956.44
2023-02-04T00:21:08.706Z,-10957.00
2023-02-04T00:24:14.595Z,-10944.53
2023-02-04T00:27:20.789Z,-10940.75
2023-02-04T00:30:28.538Z,-10951.69
2023-02-04T00:33:36.236Z,-10945.66
2023-02-04T00:36:42.312Z,-10957.84
2023-02-04T00:39:48.711Z,-10956.44
2023-02-04T00:42:54.849Z,-10957.00
2023-02-04T00:46:01.384Z,-10955.47
2023-02-04T00:49:10.754Z,-10950.72
2023-02-04T00:52:17.378Z,-10954.50
2023-02-04T00:55:23.433Z,-10953.66
2023-02-04T00:58:29.894Z,-10957.44
2023-02-04T01:01:35.919Z,-10956.03
2023-02-04T01:04:43.432Z,-10951.25
2023-02-04T01:07:49.425Z,-10955.34
2023-02-04T01:10:55.327Z,-10953.94
2023-02-04T01:14:01.642Z,-10950.84
2023-02-04T01:17:07.888Z,-10954.22
2023-02-04T01:20:15.623Z,-10943.28
2023-02-04T01:23:21.793Z,-10943.69
2023-02-04T01:26:27.993Z,-10943.16
2023-02-04T01:29:34.326Z,-10949.03
2023-02-04T01:32:40.341Z,-10953.66
2023-02-04T01:35:48.187Z,-10950.56
2023-02-04T01:38:54.321Z,-10948.19
2023-02-04T01:42:01.179Z,-10943.97
2023-02-04T01:45:08.249Z,-10943.97
2023-02-04T01:48:20.414Z,-10952.94
2023-02-04T01:51:32.091Z,-10957.56
2023-02-04T01:54:38.042Z,-10955.88
2023-02-04T01:57:44.446Z,-10952.81
2023-02-04T02:00:50.408Z,-10956.16
2023-02-04T02:03:56.520Z,-10945.53
2023-02-04T02:07:06.726Z,-10953.38
2023-02-04T02:10:14.779Z,-10959.25
2023-02-04T02:13:21.355Z,-10945.81
2023-02-04T02:16:27.734Z,-10955.63
2023-02-04T02:19:39.609Z,-10956.44
2023-02-04T02:22:59.178Z,-10955.75
2023-02-04T02:26:06.840Z,-10953.50
2023-02-04T02:29:13.177Z,-10957.28
2023-02-04T02:32:19.462Z,-10955.47
2023-02-04T02:35:25.945Z,-10953.09
2023-02-04T02:38:32.239Z,-10948.75
2023-02-04T02:41:40.195Z,-10942.03
2023-02-04T02:44:48.371Z,-10950.00
2023-02-04T02:47:54.940Z,-10945.53
2023-02-04T02:51:01.063Z,-10953.09
2023-02-04T02:54:07.438Z,-10940.91
2023-02-04T02:57:17.563Z,-10952.09
2023-02-04T03:00:26.571Z,-10947.63
2023-02-04T03:03:34.828Z,-10933.91
2023-02-04T03:06:41.289Z,-10932.50
2023-02-04T03:09:47.396Z,-10925.91
2023-02-04T03:12:55.426Z,-10929.56
2023-02-04T03:16:02.365Z,-10938.94
2023-02-04T03:19:09.690Z,-10943.28
2023-02-04T03:22:16.238Z,-10942.72
2023-02-04T03:25:24.636Z,-10948.88
2023-02-04T03:28:33.003Z,-10948.75
2023-02-04T03:31:39.511Z,-10952.81
2023-02-04T03:34:46.037Z,-10944.97
2023-02-04T03:37:52.316Z,-10938.53
2023-02-04T03:40:58.575Z,-10943.44
2023-02-04T03:44:06.533Z,-10945.09
2023-02-04T03:47:12.513Z,-10951.13
2023-02-04T03:50:18.984Z,-10953.66
2023-02-04T03:53:25.264Z,-10962.06
2023-02-04T03:56:31.440Z,-10963.59
2023-02-04T03:59:39.250Z,-10966.53
2023-02-04T04:02:45.195Z,-10964.31
2023-02-04T04:05:51.219Z,-10969.63
2023-02-04T04:08:57.068Z,-10967.66
2023-02-04T04:12:04.712Z,-10967.38
2023-02-04T04:15:12.528Z,-10967.94
2023-02-04T04:18:18.903Z,-10969.47
2023-02-04T04:21:24.896Z,-10962.19
2023-02-04T04:24:30.941Z,-10965.41
2023-02-04T04:27:36.939Z,-10966.25
2023-02-04T04:30:44.694Z,-10974.38
2023-02-04T04:33:50.989Z,-10973.97
2023-02-04T04:36:56.929Z,-10980.84
2023-02-04T04:40:03.244Z,-10981.25
2023-02-04T04:43:09.250Z,-10973.41
2023-02-04T04:46:16.932Z,-10970.75
2023-02-04T04:49:23.228Z,-10971.03
2023-02-04T04:52:29.437Z,-10972.44
2023-02-04T04:55:35.585Z,-10973.41
2023-02-04T04:58:41.502Z,-10966.41
2023-02-04T05:01:49.229Z,-10976.22
2023-02-04T05:04:55.433Z,-10972.44
2023-02-04T05:08:01.575Z,-10974.25
2023-02-04T05:11:07.963Z,-10983.91
2023-02-04T05:14:13.964Z,-10987.56
2023-02-04T05:17:21.704Z,-10992.91
2023-02-04T05:20:28.359Z,-10989.53
2023-02-04T05:23:34.642Z,-10989.25
2023-02-04T05:26:40.774Z,-10993.44
2023-02-04T05:29:46.943Z,-10992.34
2023-02-04T05:32:54.676Z,-10990.38
2023-02-04T05:36:01.082Z,-10990.38
2023-02-04T05:39:07.348Z,-10995.00
2023-02-04T05:42:13.046Z,-10991.78
2023-02-04T05:45:20.154Z,-10993.44
2023-02-04T05:48:27.860Z,-10966.25
2023-02-04T05:51:33.771Z,-10966.41
2023-02-04T05:54:39.844Z,-10959.81
2023-02-04T05:57:46.169Z,-10959.81
2023-02-04T06:00:52.476Z,-10969.63
2023-02-04T06:04:00.187Z,-10966.25
2023-02-04T06:07:06.494Z,-10982.50
2023-02-04T06:10:13.188Z,-10988.69
2023-02-04T06:13:19.632Z,-10994.00
2023-02-04T06:16:25.861Z,-10991.63
2023-02-04T06:19:33.122Z,-10987.00
2023-02-04T06:22:39.172Z,-10984.06
2023-02-04T06:25:45.245Z,-10984.34
2023-02-04T06:28:51.584Z,-10981.25
2023-02-04T06:31:57.385Z,-10980.56
2023-02-04T06:35:05.056Z,-10987.00
2023-02-04T06:38:10.944Z,-10993.88
2023-02-04T06:41:17.058Z,-10998.22
2023-02-04T06:44:23.317Z,-11000.75
2023-02-04T06:47:29.672Z,-11001.72
2023-02-04T06:50:37.521Z,-11005.94
2023-02-04T06:53:44.373Z,-11004.94
2023-02-04T06:56:50.809Z,-11003.97
2023-02-04T06:59:57.047Z,-11000.19
2023-02-04T07:03:03.000Z,-10991.34
2023-02-04T07:06:11.027Z,-10988.69
2023-02-04T07:12:40.710Z,-10990.50
2023-02-04T07:15:46.984Z,-10995.69
2023-02-04T07:18:52.942Z,-11002.72
2023-02-04T07:22:00.571Z,-11000.47
2023-02-04T07:25:07.273Z,-11005.38
2023-02-04T07:28:13.939Z,-11009.72
2023-02-04T07:31:20.204Z,-11015.75
2023-02-04T07:34:26.094Z,-11024.59
2023-02-04T07:37:33.769Z,-11027.09
2023-02-04T07:40:42.537Z,-11029.91
2023-02-04T07:43:48.809Z,-11020.38
2023-02-04T07:46:57.009Z,-11029.91
2023-02-04T07:50:03.236Z,-11029.06
2023-02-04T07:53:10.604Z,-11031.31
2023-02-04T07:56:16.811Z,-11024.72
2023-02-04T07:59:23.003Z,-11030.47
2023-02-04T08:02:29.502Z,-11037.22
2023-02-04T08:05:35.457Z,-11046.31
2023-02-04T08:08:42.750Z,-11045.50
2023-02-04T08:11:48.684Z,-11040.56
2023-02-04T08:14:54.664Z,-11051.78
2023-02-04T08:18:00.760Z,-11052.34
2023-02-04T08:21:07.061Z,-11047.88
2023-02-04T08:24:14.554Z,-11043.94
2023-02-04T08:27:20.547Z,-11046.03
2023-02-04T08:30:26.368Z,-11054.31
2023-02-04T08:33:32.422Z,-11054.75
2023-02-04T08:36:38.549Z,-11051.09
2023-02-04T08:39:46.455Z,-11051.50
2023-02-04T08:42:52.559Z,-11058.53
2023-02-04T08:45:58.673Z,-11052.91
2023-02-04T08:49:04.974Z,-11050.97
2023-02-04T08:52:11.604Z,-11047.59
2023-02-04T08:55:19.479Z,-11044.22
2023-02-04T08:58:26.038Z,-11060.06
2023-02-04T09:01:32.243Z,-11064.00
2023-02-04T09:04:38.624Z,-11057.00
2023-02-04T09:07:45.227Z,-11053.47
2023-02-04T09:10:52.596Z,-11056.56
2023-02-04T09:13:58.961Z,-11057.69
2023-02-04T09:17:06.010Z,-11047.16
2023-02-04T09:20:13.387Z,-11057.13
2023-02-04T09:23:20.420Z,-11054.31
2023-02-04T09:26:28.032Z,-11049.69
2023-02-04T09:29:34.399Z,-11061.34
2023-02-04T09:32:41.650Z,-11059.81
2023-02-04T09:35:47.686Z,-11054.03
2023-02-04T09:38:54.145Z,-11058.53
2023-02-04T09:42:01.860Z,-11059.25
2023-02-04T09:45:11.502Z,-11065.41
2023-02-04T09:48:17.433Z,-11077.34
2023-02-04T09:51:27.385Z,-11066.25
2023-02-04T09:54:33.736Z,-11063.16
2023-02-04T09:57:42.411Z,-11067.22
2023-02-04T10:00:49.903Z,-11067.78
2023-02-04T10:04:01.995Z,-11067.22
2023-02-04T10:07:13.589Z,-11057.13
2023-02-04T10:10:25.315Z,-11057.69
2023-02-04T10:13:36.637Z,-11055.88
2023-02-04T10:16:45.234Z,-11061.06
2023-02-04T10:19:51.812Z,-11063.31
2023-02-04T10:22:58.081Z,-11058.53
2023-02-04T10:26:04.984Z,-11070.88
2023-02-04T10:29:17.324Z,-11067.09
2023-02-04T10:32:31.868Z,-11071.88
2023-02-04T10:35:46.954Z,-11069.75
2023-02-04T10:39:01.572Z,-11063.44
2023-02-04T10:42:07.733Z,-11079.88
2023-02-04T10:45:26.278Z,-11071.72
2023-02-04T10:48:41.745Z,-11061.63
2023-02-04T10:51:49.525Z,-11054.75
2023-02-04T10:54:56.039Z,-11071.72
2023-02-04T10:58:05.828Z,-11068.06
2023-02-04T11:01:15.267Z,-11068.34
2023-02-04T11:04:21.303Z,-11081.00
2023-02-04T11:07:27.687Z,-11070.59
2023-02-04T11:10:35.937Z,-11073.41
2023-02-04T11:13:44.014Z,-11061.63
2023-02-04T11:16:51.835Z,-11085.91
2023-02-04T11:19:58.451Z,-11097.00
2023-02-04T11:23:32.346Z,-11091.94
2023-02-04T11:26:40.336Z,-11082.81
2023-02-04T11:29:48.041Z,-11101.34
2023-02-04T11:33:03.548Z,-11084.34
2023-02-04T11:36:12.171Z,-11084.34
2023-02-04T11:39:19.493Z,-11092.50
2023-02-04T11:42:31.715Z,-11094.03
2023-02-04T11:49:18.855Z,-11090.13
2023-02-04T11:52:25.268Z,-11109.91
2023-02-04T11:55:33.393Z,-11098.25
2023-02-04T11:58:42.579Z,-11095.03
2023-02-04T12:01:49.024Z,-11093.91
2023-02-04T12:04:58.597Z,-11089.00
2023-02-04T12:08:12.460Z,-11097.13
2023-02-04T12:11:30.446Z,-11082.25
2023-02-04T12:14:38.288Z,-11074.81
2023-02-04T12:17:46.528Z,-11083.78
2023-02-04T12:20:54.280Z,-11067.37
2023-02-04T12:24:00.562Z,-11067.37
2023-02-04T12:27:07.046Z,-11073.69
2023-02-04T12:30:14.097Z,-11072.00
2023-02-04T12:33:20.551Z,-11091.53
2023-02-04T12:36:29.862Z,-11081.41
2023-02-04T12:39:36.225Z,-11076.06
2023-02-04T12:42:44.685Z,-11082.13
2023-02-04T12:45:51.085Z,-11082.69
2023-02-04T12:48:57.491Z,-11084.34
2023-02-04T12:52:05.369Z,-11097.28
2023-02-04T12:55:11.854Z,-11095.31
2023-02-04T12:58:18.393Z,-11085.75
2023-02-04T13:01:24.468Z,-11087.59
2023-02-04T13:04:30.998Z,-11082.13
2023-02-04T13:07:40.573Z,-11070.59
2023-02-04T13:10:51.885Z,-11079.31
2023-02-04T13:13:58.199Z,-11082.25
2023-02-04T13:17:04.677Z,-11073.12
2023-02-04T13:20:12.754Z,-11070.59
2023-02-04T13:23:20.550Z,-11066.38
2023-02-04T13:26:26.890Z,-11057.69
2023-02-04T13:29:33.540Z,-11060.78
2023-02-04T13:32:41.033Z,-11043.94
2023-02-04T13:35:50.172Z,-11036.38
2023-02-04T13:39:00.177Z,-11036.22
2023-02-04T13:42:06.379Z,-11031.59
2023-02-04T13:45:13.375Z,-11021.91
2023-02-04T13:48:19.806Z,-11020.50
2023-02-04T13:51:26.116Z,-11016.44
2023-02-04T13:54:34.624Z,-11010.00
2023-02-04T13:57:42.187Z,-11004.38
2023-02-04T14:00:48.301Z,-11007.63
2023-02-04T14:03:54.460Z,-11006.06
2023-02-04T14:07:00.781Z,-11008.03
2023-02-04T14:10:10.234Z,-11017.28
2023-02-04T14:13:17.033Z,-11020.66
2023-02-04T14:16:23.677Z,-11027.66
2023-02-04T14:19:30.032Z,-11024.88
2023-02-04T14:22:36.490Z,-11024.31
2023-02-04T14:25:44.297Z,-11025.16
2023-02-04T14:28:50.682Z,-11017.28
2023-02-04T14:31:57.065Z,-11021.22
2023-02-04T14:35:03.116Z,-11028.78
2023-02-04T14:38:11.367Z,-11022.75
2023-02-04T14:41:21.273Z,-11018.56
2023-02-04T14:44:27.827Z,-11024.59
2023-02-04T14:47:34.101Z,-11025.44
2023-02-04T14:50:47.545Z,-11025.84
2023-02-04T14:53:56.986Z,-11022.62
2023-02-04T14:57:04.732Z,-11020.94
2023-02-04T15:00:12.366Z,-11019.94
2023-02-04T15:03:18.979Z,-11028.22
2023-02-04T15:06:25.360Z,-11022.34
2023-02-04T15:09:31.985Z,-11026.13
2023-02-04T15:12:39.834Z,-11024.72
2023-02-04T15:15:46.430Z,-11028.09
2023-02-04T15:18:53.014Z,-11023.75
2023-02-04T15:21:59.492Z,-11024.72
2023-02-04T15:25:06.256Z,-11024.88
2023-02-04T15:28:13.913Z,-11020.38
2023-02-04T15:31:19.927Z,-11018.28
2023-02-04T15:34:26.168Z,-11020.66
2023-02-04T15:38:08.277Z,-11019.25
2023-02-04T15:44:57.841Z,-11017.28
2023-02-04T15:48:04.072Z,-11016.16
2023-02-04T15:51:10.705Z,-11010.69
2023-02-04T15:54:16.975Z,-11015.31
2023-02-04T15:57:23.185Z,-11014.75
2023-02-04T16:00:30.869Z,-11014.19
2023-02-04T16:03:37.050Z,-11010.00
2023-02-04T16:06:57.119Z,-11010.28
2023-02-04T16:10:05.144Z,-11002.00
2023-02-04T16:13:11.536Z,-10999.06
2023-02-04T16:16:19.672Z,-10994.56
2023-02-04T16:19:25.967Z,-10995.41
2023-02-04T16:22:32.341Z,-10992.06
2023-02-04T16:25:38.482Z,-10989.53
2023-02-04T16:28:47.354Z,-10986.44
2023-02-04T16:31:57.156Z,-10984.06
2023-02-04T16:35:04.579Z,-10978.59
2023-02-04T16:38:10.734Z,-10977.19
2023-02-04T16:41:16.813Z,-10978.88
2023-02-04T16:44:22.990Z,-10981.53
2023-02-04T16:47:30.483Z,-10980.13
2023-02-04T16:50:37.942Z,-10980.13
2023-02-04T16:53:43.970Z,-10980.28
2023-02-04T16:56:50.183Z,-10983.63
2023-02-04T16:59:56.880Z,-10985.31
2023-02-04T17:03:05.684Z,-10989.81
2023-02-04T17:06:16.395Z,-10982.94
2023-02-04T17:09:22.681Z,-10983.91
2023-02-04T17:12:28.834Z,-10989.25
2023-02-04T17:15:35.118Z,-10983.34
2023-02-04T17:18:42.975Z,-10985.03
2023-02-04T17:21:49.941Z,-10981.53
2023-02-04T17:24:55.959Z,-10982.50
2023-02-04T17:28:02.210Z,-10986.59
2023-02-04T17:31:08.919Z,-10983.34
2023-02-04T17:34:16.685Z,-10985.03
2023-02-04T17:37:23.166Z,-10980.56
2023-02-04T17:40:29.314Z,-10977.75
2023-02-04T17:43:37.369Z,-10973.00
2023-02-04T17:46:43.808Z,-10976.06
2023-02-04T17:49:53.518Z,-10971.88
2023-02-04T17:53:00.159Z,-10970.03
2023-02-04T17:56:11.046Z,-10969.06
2023-02-04T17:59:17.219Z,-10962.47
2023-02-04T18:02:29.901Z,-10966.97
2023-02-04T18:05:44.866Z,-10964.16
2023-02-04T18:08:52.755Z,-10956.72
2023-02-04T18:11:58.710Z,-10954.50
2023-02-04T18:15:24.796Z,-10956.59
2023-02-04T18:18:34.001Z,-10947.50
2023-02-04T18:21:41.488Z,-10943.56
2023-02-04T18:24:49.036Z,-10946.94
2023-02-04T18:27:55.358Z,-10947.50
2023-02-04T18:31:03.783Z,-10945.66
2023-02-04T18:34:20.654Z,-10944.41
2023-02-04T18:37:33.582Z,-10942.72
2023-02-04T18:40:41.491Z,-10943.28
2023-02-04T18:43:51.840Z,-10939.34
2023-02-04T18:46:58.257Z,-10940.75
2023-02-04T18:50:23.132Z,-10940.19
2023-02-04T18:53:30.869Z,-10941.88
2023-02-04T18:56:38.850Z,-10937.81
2023-02-04T18:59:45.096Z,-10940.91
2023-02-04T19:02:55.227Z,-10934.75
2023-02-04T19:06:03.619Z,-10939.22
2023-02-04T19:09:19.469Z,-10938.53
2023-02-04T19:12:26.320Z,-10940.63
2023-02-04T19:15:39.790Z,-10941.47
2023-02-04T19:18:47.180Z,-10941.19
2023-02-04T19:21:53.399Z,-10936.97
2023-02-04T19:25:03.287Z,-10939.78
2023-02-04T19:28:26.101Z,-10935.44
2023-02-04T19:31:35.486Z,-10944.13
2023-02-04T19:34:41.632Z,-10938.53
2023-02-04T19:37:54.609Z,-10934.88
2023-02-04T19:41:02.989Z,-10936.28
2023-02-04T19:44:30.850Z,-10939.63
2023-02-04T19:47:42.784Z,-10942.16
2023-02-04T19:50:49.018Z,-10938.81
2023-02-04T19:53:59.284Z,-10935.16
2023-02-04T19:57:19.505Z,-10936.97
2023-02-04T20:01:00.140Z,-10936.28
2023-02-04T20:04:09.980Z,-10936.00
2023-02-04T20:07:20.948Z,-10932.63
2023-02-04T20:10:28.672Z,-10932.91
2023-02-04T20:13:36.208Z,-10936.28
2023-02-04T20:16:51.634Z,-10932.63
2023-02-04T20:20:02.439Z,-10928.28
2023-02-04T20:23:25.725Z,-10927.47
2023-02-04T20:26:33.752Z,-10933.75
2023-02-04T20:29:41.350Z,-10931.81
2023-02-04T20:32:48.771Z,-10934.59
2023-02-04T20:36:46.703Z,-10931.53
2023-02-04T20:39:54.840Z,-10931.94
2023-02-04T20:43:02.259Z,-10935.16
2023-02-04T20:46:21.197Z,-10928.44
2023-02-04T20:49:27.642Z,-10933.19
2023-02-04T20:53:05.675Z,-10933.47
2023-02-04T20:56:28.752Z,-10931.94
2023-02-04T20:59:35.164Z,-10936.13
2023-02-04T21:02:42.591Z,-10930.13
2023-02-04T21:05:50.268Z,-10928.28
2023-02-04T21:08:57.993Z,-10934.47
2023-02-04T21:12:04.379Z,-10932.91
2023-02-04T21:15:11.287Z,-10930.97
2023-02-04T21:18:19.018Z,-10932.91
2023-02-04T21:21:26.071Z,-10927.88
2023-02-04T21:24:32.517Z,-10929.28
2023-02-04T21:27:38.800Z,-10931.25
2023-02-04T21:30:45.371Z,-10932.78
2023-02-04T21:33:53.553Z,-10936.84
2023-02-04T21:36:59.912Z,-10936.28
2023-02-04T21:40:06.978Z,-10929.41
2023-02-04T21:43:13.097Z,-10933.63
2023-02-04T21:46:20.400Z,-10933.63
2023-02-04T21:49:27.825Z,-10931.66
2023-02-04T21:52:33.880Z,-10929.56
2023-02-04T21:55:40.187Z,-10924.22
2023-02-04T21:58:47.788Z,-10920.31
2023-02-04T22:01:54.078Z,-10928.16
2023-02-04T22:05:01.554Z,-10915.00
2023-02-04T22:08:07.547Z,-10916.81
2023-02-04T22:11:13.536Z,-10913.59
2023-02-04T22:14:20.062Z,-10907.28
2023-02-04T22:17:26.194Z,-10907.44
2023-02-04T22:20:33.895Z,-10908.56
2023-02-04T22:23:40.430Z,-10908.84
2023-02-04T22:26:46.704Z,-10908.97
2023-02-04T22:29:53.056Z,-10906.88
2023-02-04T22:33:01.080Z,-10901.84
2023-02-04T22:36:09.396Z,-10901.56
2023-02-04T22:39:15.561Z,-10895.13
2023-02-04T22:42:21.838Z,-10895.97
2023-02-04T22:45:28.352Z,-10893.72
2023-02-04T22:48:35.070Z,-10891.63
2023-02-04T22:51:42.644Z,-10892.19
2023-02-04T22:54:50.584Z,-10894.00
2023-02-04T22:57:57.036Z,-10887.56
2023-02-04T23:01:03.392Z,-10894.28
2023-02-04T23:04:09.583Z,-10891.34
2023-02-04T23:07:17.420Z,-10885.88
2023-02-04T23:10:23.743Z,-10883.34
2023-02-04T23:13:29.946Z,-10888.13
2023-02-04T23:16:36.296Z,-10883.09
2023-02-04T23:19:43.995Z,-10888.25
2023-02-04T23:22:51.461Z,-10886.72
2023-02-04T23:26:00.570Z,-10886.16
2023-02-04T23:29:06.857Z,-10881.97
2023-02-04T23:32:13.116Z,-10883.78
2023-02-04T23:35:19.433Z,-10883.78
2023-02-04T23:38:26.763Z,-10886.44
2023-02-04T23:41:32.644Z,-10883.63
2023-02-04T23:44:38.722Z,-10878.03
2023-02-04T23:47:44.942Z,-10880.00
2023-02-04T23:50:51.428Z,-10886.16
2023-02-04T23:53:59.172Z,-10887.69
2023-02-04T23:57:05.349Z,-10881.69
